Time;durP1;ratioP1;P1;durP2;ratioP2;P2;SDS_P1;SDS_P2;PMS_P1;PMS_P2;Temp;Humidity;BMP_temperature;BMP_pressure;BME280_temperature;BME280_humidity;BME280_pressure;Samples;Min_cycle;Max_cycle;Signal;HPM_P1;HPM_P2
2022/06/18 00:02:17;;;;;;;5.47;2.17;;;;;;;22.91;56.53;101589.38;5025289;28;20133;-75
2022/06/18 00:04:43;;;;;;;6.22;2.50;;;;;;;22.83;56.79;101591.63;5014882;28;20024;-76
2022/06/18 00:07:17;;;;;;;4.43;2.38;;;;;;;22.75;56.84;101592.28;5020629;28;20109;-75
2022/06/18 00:09:45;;;;;;;11.25;2.50;;;;;;;22.71;57.18;101590.38;4996898;28;20026;-75
2022/06/18 00:15:00;;;;;;;5.05;2.33;;;;;;;22.57;58.64;101588.28;5000004;28;20045;-76
2022/06/18 00:17:26;;;;;;;8.15;2.33;;;;;;;22.45;59.16;101579.53;5015450;28;20033;-75
2022/06/18 00:19:51;;;;;;;4.82;2.47;;;;;;;22.41;60.66;101584.81;5031164;28;20073;-79
2022/06/18 00:22:20;;;;;;;6.55;2.28;;;;;;;22.49;59.14;101577.84;5015611;28;20076;-73
2022/06/18 00:24:46;;;;;;;3.95;2.40;;;;;;;22.32;59.98;101572.75;5014631;28;20437;-73
2022/06/18 00:27:14;;;;;;;7.53;2.53;;;;;;;22.34;58.99;101575.22;5015521;28;20030;-74
2022/06/18 00:29:40;;;;;;;4.63;2.25;;;;;;;22.30;59.73;101574.94;5016139;28;20030;-73
2022/06/18 00:32:06;;;;;;;6.50;2.63;;;;;;;22.25;59.70;101577.72;5014912;28;20064;-77
2022/06/18 00:34:32;;;;;;;3.08;2.25;;;;;;;22.12;61.80;101570.94;5003235;28;20532;-76
2022/06/18 00:36:58;;;;;;;3.47;2.40;;;;;;;22.13;61.12;101576.16;4995993;28;20027;-74
2022/06/18 00:39:24;;;;;;;6.28;2.70;;;;;;;22.11;60.40;101578.38;4997021;28;20031;-75
2022/06/18 00:41:53;;;;;;;4.88;2.65;;;;;;;22.08;60.62;101573.44;4994523;28;20022;-76
2022/06/18 00:44:37;;;;;;;5.43;2.25;;;;;;;22.08;59.85;101578.94;5018514;28;20381;-74
2022/06/18 00:47:18;;;;;;;9.05;2.90;;;;;;;22.01;61.15;101572.94;5015574;28;20045;-74
2022/06/18 00:50:06;;;;;;;4.25;2.47;;;;;;;21.92;61.40;101580.13;5030675;28;20038;-75
2022/06/18 00:52:47;;;;;;;13.20;2.80;;;;;;;21.95;60.92;101579.56;5005919;28;20038;-76
2022/06/18 00:55:26;;;;;;;4.28;2.78;;;;;;;21.89;62.61;101575.19;5014488;28;20026;-74
2022/06/18 00:57:57;;;;;;;4.53;2.55;;;;;;;21.82;62.50;101574.69;5008276;28;20026;-74
2022/06/18 01:00:47;;;;;;;3.40;2.78;;;;;;;21.86;61.38;101576.59;4997164;28;20058;-74
2022/06/18 01:03:33;;;;;;;7.65;2.60;;;;;;;21.70;61.99;101573.09;5003651;28;20047;-75
2022/06/18 01:06:08;;;;;;;5.20;2.92;;;;;;;21.58;63.47;101578.91;4995438;28;20037;-77
2022/06/18 01:08:34;;;;;;;4.65;2.75;;;;;;;21.58;63.87;101569.84;4996889;28;20037;-73
2022/06/18 01:11:02;;;;;;;7.82;2.90;;;;;;;21.55;64.35;101570.41;5027709;28;20034;-76
2022/06/18 01:13:34;;;;;;;5.95;2.75;;;;;;;21.52;64.01;101566.28;5015022;28;20030;-77
2022/06/18 01:16:00;;;;;;;4.30;2.78;;;;;;;21.48;63.73;101567.09;4996458;28;20113;-74
2022/06/18 01:18:27;;;;;;;5.25;2.80;;;;;;;21.43;64.27;101557.75;4995294;28;20053;-75
2022/06/18 01:21:00;;;;;;;6.90;2.80;;;;;;;21.41;64.68;101546.19;4995308;28;20038;-74
2022/06/18 01:23:41;;;;;;;6.03;2.97;;;;;;;21.44;63.87;101553.06;4996544;28;20117;-74
2022/06/18 01:26:08;;;;;;;7.53;2.67;;;;;;;21.43;64.09;101554.97;4993898;28;20428;-76
2022/06/18 01:28:34;;;;;;;7.35;2.90;;;;;;;21.40;64.36;101552.78;5009763;28;20050;-74
2022/06/18 01:31:00;;;;;;;5.68;3.00;;;;;;;21.34;64.48;101550.34;5014762;28;20038;-74
2022/06/18 01:33:25;;;;;;;5.55;2.95;;;;;;;21.37;63.44;101553.34;5014361;28;20030;-74
2022/06/18 01:35:54;;;;;;;6.28;3.35;;;;;;;21.36;64.11;101567.41;5029626;28;20033;-75
2022/06/18 01:38:20;;;;;;;4.68;3.00;;;;;;;21.34;64.95;101559.44;5014219;28;20049;-74
2022/06/18 01:41:49;;;;;;;11.32;3.30;;;;;;;21.38;63.83;101566.03;5014625;28;20034;-73
2022/06/18 01:43:48;;;;;;;5.70;3.10;;;;;;;21.21;65.32;101565.53;5014212;28;20385;-76
2022/06/18 01:46:14;;;;;;;3.85;2.80;;;;;;;21.21;65.77;101554.50;5001482;28;20034;-74
2022/06/18 01:48:41;;;;;;;5.18;3.08;;;;;;;21.26;65.04;101557.25;4993879;28;20041;-75
2022/06/18 01:51:19;;;;;;;5.88;3.10;;;;;;;21.22;64.92;101548.72;5004229;28;20045;-73
2022/06/18 01:53:50;;;;;;;6.50;3.05;;;;;;;21.10;65.68;101545.47;5014216;28;20034;-75
2022/06/18 01:56:39;;;;;;;3.53;3.00;;;;;;;21.16;64.70;101546.28;5012801;28;20032;-73
2022/06/18 01:59:10;;;;;;;3.67;3.22;;;;;;;21.00;66.15;101551.84;4993167;28;20092;-73
2022/06/18 02:01:39;;;;;;;8.00;3.38;;;;;;;20.93;66.22;101551.28;5006596;28;20458;-73
2022/06/18 02:04:05;;;;;;;5.60;3.22;;;;;;;20.97;66.68;101555.13;5020967;28;20030;-75
2022/06/18 02:06:34;;;;;;;4.88;2.90;;;;;;;20.90;66.80;101549.09;4996264;28;20363;-74
2022/06/18 02:09:04;;;;;;;6.45;3.60;;;;;;;20.96;65.84;101550.72;5009491;28;20108;-73
2022/06/18 02:11:29;;;;;;;5.43;3.45;;;;;;;20.96;66.99;101552.66;5010588;28;20045;-73
2022/06/18 02:14:04;;;;;;;7.45;3.40;;;;;;;20.96;65.62;101545.22;4994299;28;20458;-75
2022/06/18 02:16:35;;;;;;;4.13;3.10;;;;;;;20.94;67.09;101541.09;5005329;28;20076;-74
2022/06/18 02:19:02;;;;;;;;;;;;;;;21.12;64.18;101535.03;5012250;28;20029;-76
2022/06/18 02:21:27;;;;;;;5.45;3.40;;;;;;;20.93;66.21;101539.47;5020489;28;19960;-75
2022/06/18 02:23:54;;;;;;;5.53;3.80;;;;;;;20.85;66.15;101547.19;4992759;28;20038;-74
2022/06/18 02:26:27;;;;;;;6.70;3.95;;;;;;;20.81;67.74;101545.25;5009199;28;20496;-75
2022/06/18 02:28:55;;;;;;;8.82;3.75;;;;;;;20.72;67.58;101547.75;5008995;28;20382;-74
2022/06/18 02:31:26;;;;;;;8.13;3.78;;;;;;;20.78;67.14;101551.31;5008815;28;20490;-73
2022/06/18 02:33:55;;;;;;;;;;;;;;;20.95;65.08;101546.31;4993110;28;20038;-73
2022/06/18 02:36:24;;;;;;;9.25;4.03;;;;;;;20.78;66.39;101537.56;5009200;28;19922;-75
2022/06/18 02:39:25;;;;;;;6.57;3.70;;;;;;;20.84;65.68;101544.69;5009067;28;20022;-76
2022/06/18 02:42:01;;;;;;;4.78;3.45;;;;;;;20.81;65.92;101545.25;5008936;28;20044;-73
2022/06/18 02:44:27;;;;;;;9.77;4.00;;;;;;;20.72;66.33;101539.50;5017874;28;20026;-75
2022/06/18 02:46:52;;;;;;;7.57;3.72;;;;;;;20.66;67.87;101546.09;5003425;28;20018;-73
2022/06/18 02:49:18;;;;;;;9.88;4.07;;;;;;;20.73;66.46;101537.56;5012286;28;20424;-74
2022/06/18 02:51:44;;;;;;;9.65;4.22;;;;;;;20.61;68.02;101535.06;5011558;28;20022;-74
2022/06/18 02:54:10;;;;;;;6.65;4.10;;;;;;;20.63;66.63;101539.19;5011885;28;20049;-75
2022/06/18 02:56:35;;;;;;;5.60;4.18;;;;;;;20.66;66.60;101537.84;5006214;28;20503;-75
2022/06/18 02:59:04;;;;;;;8.95;4.20;;;;;;;20.61;66.96;101538.66;5022494;28;20121;-75
2022/06/18 03:01:32;;;;;;;9.25;4.43;;;;;;;20.64;67.72;101534.53;5014703;28;20067;-73
2022/06/18 03:04:00;;;;;;;15.20;4.20;;;;;;;20.62;68.09;101537.56;5031539;28;20022;-73
2022/06/18 03:06:27;;;;;;;10.05;4.35;;;;;;;20.54;68.42;101540.84;5013595;28;20022;-74
2022/06/18 03:08:54;;;;;;;9.73;4.40;;;;;;;20.61;67.62;101532.31;5011948;28;20512;-73
2022/06/18 03:14:07;;;;;;;9.60;4.70;;;;;;;20.56;67.57;101541.38;5013189;28;20068;-76
2022/06/18 03:16:33;;;;;;;10.10;4.70;;;;;;;20.54;67.47;101552.66;5009019;28;20034;-75
2022/06/18 03:18:59;;;;;;;8.05;4.43;;;;;;;20.52;67.78;101543.88;4991850;28;20113;-74
2022/06/18 03:21:37;;;;;;;10.35;4.60;;;;;;;20.50;67.80;101545.22;5025514;28;20029;-75
2022/06/18 03:24:03;;;;;;;8.57;4.30;;;;;;;20.45;69.09;101548.00;5011259;28;20392;-73
2022/06/18 03:26:29;;;;;;;10.27;4.40;;;;;;;20.45;69.55;101548.00;5013047;28;20022;-75
2022/06/18 03:28:55;;;;;;;6.75;4.05;;;;;;;20.43;68.60;101542.78;4998323;28;20122;-76
2022/06/18 03:31:20;;;;;;;11.57;4.63;;;;;;;20.33;70.13;101546.31;4990609;28;20477;-74
2022/06/18 03:33:47;;;;;;;9.85;4.32;;;;;;;20.34;71.10;101549.91;4993562;28;20045;-73
2022/06/18 03:36:17;;;;;;;6.90;4.18;;;;;;;20.35;69.92;101540.56;4991722;28;20477;-77
2022/06/18 03:38:43;;;;;;;5.82;4.35;;;;;;;20.32;71.70;101544.69;4991938;28;20041;-75
2022/06/18 03:41:09;;;;;;;7.72;4.50;;;;;;;20.32;72.33;101550.19;5015763;28;20322;-76
2022/06/18 03:43:35;;;;;;;8.48;4.28;;;;;;;20.30;71.13;101546.88;5028031;28;20032;-76
2022/06/18 03:46:05;;;;;;;7.85;4.43;;;;;;;20.31;71.81;101554.03;5011077;28;20029;-75
2022/06/18 03:48:34;;;;;;;6.55;4.45;;;;;;;20.29;71.69;101553.50;5026047;28;20033;-77
2022/06/18 03:50:59;;;;;;;9.85;4.50;;;;;;;20.32;70.35;101554.84;5010920;28;20080;-73
2022/06/18 03:53:24;;;;;;;8.68;4.55;;;;;;;20.24;71.37;101552.66;4994064;28;20030;-76
2022/06/18 03:55:50;;;;;;;7.93;4.53;;;;;;;20.31;70.64;101547.72;4993057;28;20417;-74
2022/06/18 03:58:16;;;;;;;9.82;5.03;;;;;;;20.27;71.91;101550.16;5008794;28;20504;-75
2022/06/18 04:00:41;;;;;;;7.38;4.20;;;;;;;20.29;70.85;101547.16;5006526;28;20401;-74
2022/06/18 04:03:07;;;;;;;10.40;4.75;;;;;;;20.23;72.05;101540.84;5030398;28;20022;-74
2022/06/18 04:05:36;;;;;;;8.60;4.68;;;;;;;20.23;72.70;101543.59;5006934;28;20033;-77
2022/06/18 04:08:01;;;;;;;9.23;4.78;;;;;;;20.14;72.78;101542.47;5007401;28;20362;-76
2022/06/18 04:10:27;;;;;;;9.77;4.97;;;;;;;20.14;73.25;101534.22;5007920;28;20060;-76
2022/06/18 04:12:53;;;;;;;10.35;4.78;;;;;;;20.17;73.46;101531.75;4992928;28;20038;-75
2022/06/18 04:15:19;;;;;;;9.15;4.60;;;;;;;20.12;74.22;101522.69;4992389;28;20033;-76
2022/06/18 04:17:45;;;;;;;6.30;4.40;;;;;;;20.18;74.50;101529.84;5005955;28;20105;-74
2022/06/18 04:20:33;;;;;;;10.85;5.07;;;;;;;20.23;72.29;101535.34;5010835;28;20081;-74
2022/06/18 04:22:59;;;;;;;10.65;5.07;;;;;;;20.19;74.26;101528.75;5006242;28;20034;-77
2022/06/18 04:25:24;;;;;;;8.32;4.88;;;;;;;20.25;73.95;101527.66;4992585;28;20508;-74
2022/06/18 04:27:50;;;;;;;7.35;5.22;;;;;;;20.30;72.52;101535.06;5007655;28;20164;-76
2022/06/18 04:30:17;;;;;;;8.57;4.75;;;;;;;20.22;74.75;101536.44;4992229;28;20057;-75
2022/06/18 04:32:43;;;;;;;11.55;5.32;;;;;;;20.29;74.51;101534.25;4992802;28;20030;-75
2022/06/18 04:35:11;;;;;;;7.90;5.28;;;;;;;20.35;72.16;101538.66;5001232;28;20036;-76
2022/06/18 04:37:37;;;;;;;10.80;5.20;;;;;;;20.33;72.73;101540.00;5012232;28;20029;-77
2022/06/18 04:40:03;;;;;;;11.63;5.57;;;;;;;20.38;71.84;101539.19;5026591;28;20048;-76
2022/06/18 04:42:29;;;;;;;13.13;5.28;;;;;;;20.40;71.45;101528.75;5013253;28;20030;-76
2022/06/18 04:44:54;;;;;;;10.90;5.60;;;;;;;20.42;71.74;101535.63;5014253;28;20096;-77
2022/06/18 04:47:19;;;;;;;16.17;5.50;;;;;;;20.44;71.60;101532.59;5014062;28;20067;-77
2022/06/18 04:49:45;;;;;;;9.23;5.50;;;;;;;20.45;71.18;101529.56;5015682;28;20034;-75
2022/06/18 04:52:11;;;;;;;11.93;5.60;;;;;;;20.51;71.35;101533.97;5026769;28;20034;-74
2022/06/18 04:54:36;;;;;;;11.50;5.95;;;;;;;20.53;70.94;101528.19;5007745;28;20037;-76
2022/06/18 04:57:02;;;;;;;12.35;6.20;;;;;;;20.52;71.12;101537.56;5030578;28;20120;-76
2022/06/18 04:59:27;;;;;;;13.07;6.70;;;;;;;20.57;70.86;101545.78;5008240;28;20044;-76
2022/06/18 05:02:07;;;;;;;11.20;6.40;;;;;;;20.59;70.82;101538.06;5013234;28;20046;-76
2022/06/18 05:04:32;;;;;;;11.27;6.90;;;;;;;20.61;70.79;101530.41;5027039;28;20080;-76
2022/06/18 05:06:58;;;;;;;11.73;6.80;;;;;;;20.61;70.64;101535.91;4995901;28;20037;-76
2022/06/18 05:09:23;;;;;;;11.77;6.50;;;;;;;20.66;71.09;101532.34;4996176;28;20062;-76
2022/06/18 05:11:49;;;;;;;12.45;7.82;;;;;;;20.67;70.71;101534.81;5000567;28;20053;-73
2022/06/18 05:14:15;;;;;;;11.63;6.80;;;;;;;20.69;70.88;101531.78;5014531;28;20026;-75
2022/06/18 05:16:43;;;;;;;15.68;7.40;;;;;;;20.72;70.76;101536.75;5015280;28;20505;-74
2022/06/18 05:19:23;;;;;;;12.02;8.00;;;;;;;20.76;70.62;101531.50;5013232;28;20032;-75
2022/06/18 05:21:48;;;;;;;12.73;7.03;;;;;;;20.76;71.05;101537.00;5013881;28;20473;-77
2022/06/18 05:24:13;;;;;;;19.77;7.97;;;;;;;20.76;70.86;101542.50;5004033;28;20040;-74
2022/06/18 05:26:43;;;;;;;13.85;7.68;;;;;;;20.82;70.97;101547.72;5024172;28;20034;-76
2022/06/18 05:29:10;;;;;;;12.93;7.50;;;;;;;20.85;70.47;101552.69;5030142;28;20025;-76
2022/06/18 05:31:35;;;;;;;13.07;7.65;;;;;;;20.85;70.30;101546.38;5013945;28;20058;-74
2022/06/18 05:34:01;;;;;;;11.63;7.47;;;;;;;20.89;71.22;101544.69;5010406;28;20432;-77
2022/06/18 05:36:26;;;;;;;16.33;7.50;;;;;;;20.94;70.48;101550.19;4993785;28;20037;-77
2022/06/18 05:38:53;;;;;;;11.27;7.70;;;;;;;20.96;70.29;101558.97;4995557;28;20038;-74
2022/06/18 05:41:18;;;;;;;13.48;6.95;;;;;;;21.01;69.81;101566.41;4994888;28;20073;-75
2022/06/18 05:43:43;;;;;;;15.55;7.30;;;;;;;21.05;70.12;101565.56;4995160;28;20065;-74
2022/06/18 05:46:11;;;;;;;12.02;6.60;;;;;;;21.08;70.11;101566.94;4993580;28;20052;-74
2022/06/18 05:48:37;;;;;;;13.05;7.20;;;;;;;21.13;70.06;101561.41;5027595;28;20500;-74
2022/06/18 05:51:04;;;;;;;13.98;6.40;;;;;;;21.21;69.54;101554.50;5014420;28;20024;-73
2022/06/18 05:53:30;;;;;;;13.00;6.55;;;;;;;21.25;69.31;101561.13;5011236;28;20038;-73
2022/06/18 05:55:55;;;;;;;14.88;7.05;;;;;;;21.30;69.01;101560.28;5010628;28;20092;-76
2022/06/18 05:58:20;;;;;;;11.60;6.55;;;;;;;21.34;68.54;101553.09;5001921;28;20038;-75
2022/06/18 06:00:45;;;;;;;15.02;6.95;;;;;;;21.41;67.98;101559.97;5011437;28;20036;-77
2022/06/18 06:03:11;;;;;;;14.13;6.63;;;;;;;21.43;67.21;101552.22;5042927;28;20026;-75
2022/06/18 06:05:42;;;;;;;13.23;6.30;;;;;;;21.48;67.34;101550.56;5014091;28;20092;-76
2022/06/18 06:08:11;;;;;;;17.67;6.32;;;;;;;21.54;67.34;101552.22;5013058;28;20385;-76
2022/06/18 06:13:22;;;;;;;15.52;6.20;;;;;;;21.65;66.04;101537.31;5005889;28;20072;-76
2022/06/18 06:15:49;;;;;;;13.82;6.35;;;;;;;21.66;65.17;101533.44;5029335;28;20492;-73
2022/06/18 06:18:17;;;;;;;16.95;6.20;;;;;;;21.74;65.05;101541.13;5028781;28;20026;-74
2022/06/18 06:20:46;;;;;;;14.35;6.40;;;;;;;21.77;64.45;101539.75;5012744;28;20580;-78
2022/06/18 06:23:12;;;;;;;16.35;6.25;;;;;;;21.84;64.23;101533.91;5012196;28;20144;-75
2022/06/18 06:25:38;;;;;;;19.65;6.07;;;;;;;21.87;64.34;101536.09;5012677;28;20108;-77
2022/06/18 06:28:09;;;;;;;12.30;5.60;;;;;;;21.92;63.26;101530.53;5011500;28;20384;-74
2022/06/18 06:30:35;;;;;;;17.08;5.93;;;;;;;21.97;63.59;101538.78;5008943;28;20045;-77
2022/06/18 06:33:39;;;;;;;14.13;5.72;;;;;;;22.06;63.84;101548.09;5009571;28;20058;-75
2022/06/18 06:36:05;;;;;;;13.85;6.13;;;;;;;22.07;63.29;101538.72;5012030;28;20116;-73
2022/06/18 06:38:32;;;;;;;13.45;6.30;;;;;;;22.13;62.92;101534.81;5028752;28;20582;-73
2022/06/18 06:40:58;;;;;;;14.02;5.93;;;;;;;22.12;62.40;101535.09;5011485;28;20042;-72
2022/06/18 06:43:23;;;;;;;12.20;5.70;;;;;;;22.22;62.50;101545.22;5010966;28;20041;-72
2022/06/18 06:45:49;;;;;;;21.58;6.38;;;;;;;22.24;61.62;101538.31;5012133;28;20465;-74
2022/06/18 06:48:14;;;;;;;16.05;6.25;;;;;;;22.26;61.68;101535.28;5012798;28;20030;-75
2022/06/18 06:50:40;;;;;;;15.15;6.22;;;;;;;22.26;61.21;101538.03;5013603;28;20092;-73
2022/06/18 06:53:06;;;;;;;15.98;5.65;;;;;;;22.31;62.82;101532.50;5011862;28;20123;-73
2022/06/18 06:58:22;;;;;;;18.70;6.55;;;;;;;22.42;61.03;101534.06;4994394;28;20176;-73
2022/06/18 07:00:51;;;;;;;17.45;5.53;;;;;;;22.47;61.54;101545.06;5004703;28;20109;-72
2022/06/18 07:03:19;;;;;;;16.15;5.97;;;;;;;22.52;62.14;101535.91;5031221;28;20037;-73
2022/06/18 07:05:45;;;;;;;15.48;5.75;;;;;;;22.59;62.77;101539.16;4993536;28;20037;-73
2022/06/18 07:08:12;;;;;;;18.98;6.10;;;;;;;22.64;61.39;101543.81;4993531;28;20390;-77
2022/06/18 07:10:38;;;;;;;11.45;5.50;;;;;;;22.70;61.18;101550.09;5005284;28;20037;-73
2022/06/18 07:13:04;;;;;;;17.08;5.72;;;;;;;22.72;60.86;101543.19;4997917;28;20492;-74
2022/06/18 07:15:30;;;;;;;15.10;5.60;;;;;;;22.76;61.14;101543.44;5000924;28;20029;-73
2022/06/18 07:17:55;;;;;;;17.27;5.97;;;;;;;22.78;60.89;101547.56;5012375;28;20029;-81
2022/06/18 07:20:22;;;;;;;14.82;5.65;;;;;;;22.81;61.37;101544.22;5012299;28;20036;-74
2022/06/18 07:22:47;;;;;;;11.45;5.80;;;;;;;22.85;61.05;101541.69;5012975;28;20060;-72
2022/06/18 07:25:14;;;;;;;15.60;6.13;;;;;;;22.90;60.77;101541.63;5012646;28;20062;-73
2022/06/18 07:27:40;;;;;;;13.48;5.55;;;;;;;22.96;61.22;101545.16;5012623;28;20465;-75
2022/06/18 07:30:08;;;;;;;15.55;5.38;;;;;;;22.99;62.03;101539.03;5012366;28;20049;-73
2022/06/18 07:32:36;;;;;;;16.63;5.70;;;;;;;23.08;61.89;101545.56;5012365;28;20471;-73
2022/06/18 07:35:01;;;;;;;14.85;5.38;;;;;;;23.13;61.82;101531.75;5012748;28;20029;-72
2022/06/18 07:37:28;;;;;;;11.73;5.05;;;;;;;23.20;62.48;101536.09;5012619;28;20453;-72
2022/06/18 07:39:53;;;;;;;14.77;5.50;;;;;;;23.31;60.97;101532.09;5012430;28;20461;-72
2022/06/18 07:42:21;;;;;;;16.65;5.35;;;;;;;23.33;60.29;101530.69;5011006;28;20045;-75
2022/06/18 07:44:46;;;;;;;13.30;5.28;;;;;;;23.38;60.89;101535.31;4996271;28;20035;-75
2022/06/18 07:47:13;;;;;;;13.32;5.50;;;;;;;23.44;61.42;101527.78;4992782;28;20034;-75
2022/06/18 07:49:38;;;;;;;10.50;5.50;;;;;;;23.47;60.26;101530.78;4993119;28;20488;-71
2022/06/18 07:52:04;;;;;;;18.08;6.13;;;;;;;23.53;60.55;101535.13;4993278;28;20033;-72
2022/06/18 07:54:29;;;;;;;13.55;5.50;;;;;;;23.56;59.88;101519.91;4992736;28;20135;-71
2022/06/18 07:56:55;;;;;;;21.23;6.93;;;;;;;23.65;59.82;101522.81;4992922;28;20026;-71
2022/06/18 07:59:20;;;;;;;14.95;6.00;;;;;;;23.68;60.65;101525.81;4997574;28;20049;-73
2022/06/18 08:01:45;;;;;;;12.13;5.60;;;;;;;23.76;60.40;101520.72;5018556;28;20053;-71
2022/06/18 08:04:11;;;;;;;16.90;5.85;;;;;;;23.82;60.08;101516.78;5032222;28;20041;-73
2022/06/18 08:06:36;;;;;;;16.17;6.13;;;;;;;23.87;60.34;101512.03;5032073;28;20026;-72
2022/06/18 08:09:02;;;;;;;13.77;5.95;;;;;;;23.94;59.81;101513.59;5014854;28;20422;-73
2022/06/18 08:11:29;;;;;;;15.05;6.03;;;;;;;23.97;59.77;101518.53;5012427;28;20040;-70
2022/06/18 08:13:57;;;;;;;12.68;5.60;;;;;;;24.04;60.81;101511.50;5001689;28;20125;-70
2022/06/18 08:16:22;;;;;;;13.88;5.80;;;;;;;24.07;59.51;101507.31;4993361;28;20027;-73
2022/06/18 08:18:47;;;;;;;14.95;5.35;;;;;;;24.13;59.42;101502.53;4996485;28;20076;-72
2022/06/18 08:21:25;;;;;;;16.23;5.32;;;;;;;24.19;59.12;101504.91;4996454;28;20034;-71
2022/06/18 08:23:54;;;;;;;16.95;5.68;;;;;;;24.22;58.67;101501.53;5020493;28;20384;-73
2022/06/18 08:26:20;;;;;;;19.05;5.78;;;;;;;24.25;59.19;101500.13;5016061;28;20465;-69
2022/06/18 08:28:45;;;;;;;13.48;5.05;;;;;;;24.29;59.89;101492.88;5015106;28;20037;-71
2022/06/18 08:31:11;;;;;;;14.73;5.43;;;;;;;24.34;59.07;101491.94;5035812;28;20053;-71
2022/06/18 08:33:37;;;;;;;13.25;5.70;;;;;;;24.38;59.88;101498.50;5027530;28;20030;-71
2022/06/18 08:36:08;;;;;;;14.68;5.30;;;;;;;24.43;59.54;101492.91;5015949;28;20045;-72
2022/06/18 08:38:35;;;;;;;14.75;5.25;;;;;;;24.53;59.10;101489.94;5015955;28;20022;-72
2022/06/18 08:41:43;;;;;;;17.92;5.47;;;;;;;24.64;59.40;101493.38;5015970;28;20029;-71
2022/06/18 08:44:31;;;;;;;14.40;5.28;;;;;;;24.67;59.29;101484.47;5004990;28;20045;-73
2022/06/18 08:47:22;;;;;;;15.82;5.70;;;;;;;24.72;59.10;101492.66;4996271;28;20092;-73
2022/06/18 08:49:54;;;;;;;17.05;5.82;;;;;;;24.84;58.11;101489.41;4996365;28;20585;-71
2022/06/18 08:52:38;;;;;;;15.57;5.93;;;;;;;24.98;59.83;101488.59;5000205;28;20117;-72
2022/06/18 08:55:19;;;;;;;12.32;5.10;;;;;;;24.95;58.42;101496.34;5015787;28;20040;-73
2022/06/18 08:58:05;;;;;;;15.07;5.25;;;;;;;25.04;57.78;101498.44;5015750;28;20144;-71
2022/06/18 09:00:53;;;;;;;21.20;5.57;;;;;;;25.03;56.78;101494.84;5012977;28;20433;-72
2022/06/18 09:03:45;;;;;;;18.67;6.15;;;;;;;25.09;57.12;101506.63;5006771;28;20097;-71
2022/06/18 09:06:22;;;;;;;14.50;5.13;;;;;;;25.17;55.97;101505.06;5015643;28;20124;-72
2022/06/18 09:09:06;;;;;;;17.33;5.50;;;;;;;25.31;56.99;101499.59;5015556;28;20453;-73
2022/06/18 09:11:49;;;;;;;17.50;5.07;;;;;;;25.42;55.20;101506.53;5015257;28;20061;-74
2022/06/18 09:14:31;;;;;;;18.08;5.50;;;;;;;25.38;55.55;101505.50;5014591;28;20041;-73
2022/06/18 09:17:09;;;;;;;19.60;5.68;;;;;;;25.47;55.59;101507.25;5015426;28;20516;-74
2022/06/18 09:19:36;;;;;;;15.23;5.45;;;;;;;25.51;56.08;101506.63;5015148;28;20041;-74
2022/06/18 09:22:05;;;;;;;12.95;5.28;;;;;;;25.59;55.75;101503.09;5014401;28;20026;-77
2022/06/18 09:24:44;;;;;;;18.25;5.97;;;;;;;25.56;56.62;101504.56;5010420;28;20381;-78
2022/06/18 09:27:21;;;;;;;24.75;6.70;;;;;;;25.58;56.32;101505.06;4995429;28;20039;-74
2022/06/18 09:30:02;;;;;;;20.50;6.03;;;;;;;25.63;56.29;101504.94;4995402;28;20097;-73
2022/06/18 09:32:32;;;;;;;;;;;;;;;25.70;56.02;101503.72;4999445;28;20085;-73
2022/06/18 09:35:24;;;;;;;16.98;5.72;;;;;;;25.71;56.31;101510.88;5015275;28;19921;-73
2022/06/18 09:38:01;;;;;;;19.25;6.50;;;;;;;25.76;56.39;101494.16;5014975;28;20114;-71
2022/06/18 09:40:39;;;;;;;19.63;5.70;;;;;;;25.95;56.52;101494.81;5014651;28;20030;-72
2022/06/18 09:43:10;;;;;;;21.17;6.43;;;;;;;25.93;54.73;101497.06;5005900;28;20098;-71
2022/06/18 09:45:45;;;;;;;19.00;7.10;;;;;;;25.93;54.99;101485.16;4994990;28;20037;-71
2022/06/18 09:48:11;;;;;;;20.10;6.57;;;;;;;25.94;55.41;101490.38;4995220;28;20145;-73
2022/06/18 09:51:10;;;;;;;18.25;6.38;;;;;;;25.98;55.57;101488.66;4994994;28;20089;-71
2022/06/18 09:53:40;;;;;;;19.70;6.55;;;;;;;25.97;55.07;101480.63;5007105;28;20034;-75
2022/06/18 09:56:20;;;;;;;23.40;6.78;;;;;;;25.99;54.41;101481.97;5014623;28;20113;-74
2022/06/18 09:58:52;;;;;;;20.10;6.60;;;;;;;26.02;55.05;101477.75;5029669;28;20109;-72
2022/06/18 10:01:23;;;;;;;23.75;7.40;;;;;;;26.02;54.54;101477.75;5014652;28;20044;-72
2022/06/18 10:06:52;;;;;;;17.95;6.32;;;;;;;26.12;54.86;101473.91;5033936;28;20035;-71
2022/06/18 10:09:23;;;;;;;;;;;;;;;26.16;54.73;101466.59;5034689;28;20026;-73
2022/06/18 10:11:48;;;;;;;17.60;6.55;;;;;;;26.20;54.87;101470.38;5034422;28;20272;-71
2022/06/18 10:14:22;;;;;;;17.77;6.53;;;;;;;26.22;55.02;101473.63;5009941;28;20025;-71
2022/06/18 10:17:15;;;;;;;14.77;6.05;;;;;;;26.29;54.89;101465.69;5013981;28;20026;-71
2022/06/18 10:20:05;;;;;;;18.40;5.93;;;;;;;26.34;54.38;101468.34;4999995;28;20610;-70
2022/06/18 10:22:48;;;;;;;15.25;5.60;;;;;;;26.42;54.38;101463.16;5014051;28;20025;-73
2022/06/18 10:25:31;;;;;;;17.77;5.50;;;;;;;26.49;54.42;101460.75;5014112;28;20062;-71
2022/06/18 10:28:07;;;;;;;18.13;5.85;;;;;;;26.58;54.24;101458.00;5010453;28;20026;-73
2022/06/18 10:30:48;;;;;;;24.25;6.15;;;;;;;26.64;53.70;101465.88;4993821;28;20133;-70
2022/06/18 10:33:55;;;;;;;19.13;5.95;;;;;;;26.70;53.32;101453.50;4994340;28;20033;-71
2022/06/18 10:36:41;;;;;;;22.05;6.15;;;;;;;26.85;53.59;101459.78;4993857;28;20116;-74
2022/06/18 10:39:30;;;;;;;18.00;5.25;;;;;;;26.96;53.92;101451.97;5005965;28;20482;-71
2022/06/18 10:42:02;;;;;;;15.07;5.22;;;;;;;26.98;52.12;101449.69;5004988;28;20034;-71
2022/06/18 10:44:45;;;;;;;17.88;5.88;;;;;;;27.03;51.75;101447.59;4993818;28;20034;-71
2022/06/18 10:47:17;;;;;;;13.93;5.80;;;;;;;27.03;50.89;101449.56;4994098;28;20077;-71
2022/06/18 10:49:44;;;;;;;18.15;5.88;;;;;;;27.09;51.61;101442.72;4993821;28;20080;-76
2022/06/18 10:52:23;;;;;;;13.98;5.47;;;;;;;27.16;51.63;101433.88;4993896;28;20042;-73
2022/06/18 10:54:50;;;;;;;18.63;5.65;;;;;;;27.28;52.11;101439.66;4993971;28;20470;-74
2022/06/18 10:57:25;;;;;;;20.33;5.80;;;;;;;27.32;51.35;101440.66;4993842;28;20110;-72
2022/06/18 10:59:50;;;;;;;20.02;5.60;;;;;;;27.34;50.92;101430.03;4993777;28;20064;-72
2022/06/18 11:02:20;;;;;;;19.52;5.38;;;;;;;27.38;51.02;101425.44;5006467;28;20069;-74
2022/06/18 11:04:56;;;;;;;18.47;5.30;;;;;;;27.46;52.31;101423.81;5013158;28;20061;-73
2022/06/18 11:07:25;;;;;;;15.25;4.95;;;;;;;27.71;53.27;101419.41;5013226;28;20032;-73
2022/06/18 11:10:01;;;;;;;24.55;5.60;;;;;;;27.77;50.70;101420.88;5012311;28;20369;-72
2022/06/18 11:12:32;;;;;;;17.42;5.95;;;;;;;27.76;50.47;101415.63;5001676;28;20042;-73
2022/06/18 11:14:57;;;;;;;13.23;5.13;;;;;;;27.83;50.00;101413.19;4992261;28;20521;-72
2022/06/18 11:17:41;;;;;;;15.23;4.88;;;;;;;27.86;51.19;101408.94;4993483;28;20113;-74
2022/06/18 11:20:19;;;;;;;18.08;5.50;;;;;;;28.02;50.57;101401.75;4997467;28;20416;-72
2022/06/18 11:22:51;;;;;;;16.13;5.85;;;;;;;28.03;49.11;101392.22;5019473;28;20448;-73
2022/06/18 11:25:25;;;;;;;18.15;5.97;;;;;;;28.05;49.29;101395.50;5010770;28;20053;-73
2022/06/18 11:27:52;;;;;;;19.02;5.78;;;;;;;28.15;49.14;101390.72;5012907;28;20038;-74
2022/06/18 11:30:42;;;;;;;21.52;5.63;;;;;;;28.13;48.42;101384.66;5012641;28;20485;-75
2022/06/18 11:33:23;;;;;;;17.60;4.93;;;;;;;28.37;50.61;101387.72;5011750;28;20545;-72
2022/06/18 11:35:50;;;;;;;16.85;5.50;;;;;;;28.45;49.03;101381.28;5012636;28;20030;-77
2022/06/18 11:38:32;;;;;;;20.20;5.45;;;;;;;28.50;48.95;101371.09;5027802;28;20052;-75
2022/06/18 11:41:10;;;;;;;28.15;5.60;;;;;;;28.51;48.86;101369.97;5012622;28;20033;-75
2022/06/18 11:44:04;;;;;;;23.58;5.60;;;;;;;28.69;50.11;101365.16;4992839;28;20492;-75
2022/06/18 11:46:39;;;;;;;16.95;5.00;;;;;;;28.76;48.34;101360.69;4993375;28;20450;-74
2022/06/18 11:49:23;;;;;;;16.52;5.18;;;;;;;28.73;46.41;101366.09;4993231;28;20042;-75
2022/06/18 11:52:11;;;;;;;14.20;5.30;;;;;;;28.72;48.15;101362.50;5001016;28;20109;-75
2022/06/18 11:54:47;;;;;;;19.48;5.35;;;;;;;28.78;47.12;101358.38;5016595;28;20105;-75